createdAt,value
2023-06-06T00:01:29.102Z,66.58
2023-06-06T00:03:57.605Z,66.27
2023-06-06T00:06:28.868Z,67.27
2023-06-06T00:08:58.401Z,67.36
2023-06-06T00:11:26.528Z,66.95
2023-06-06T00:13:54.679Z,67.82
2023-06-06T00:16:24.933Z,67.31
2023-06-06T00:18:54.168Z,67.62
2023-06-06T00:21:22.490Z,67.00
2023-06-06T00:23:50.707Z,67.61
2023-06-06T00:26:20.120Z,67.59
2023-06-06T00:28:49.445Z,68.40
2023-06-06T00:31:17.525Z,67.79
2023-06-06T00:33:45.612Z,67.92
2023-06-06T00:36:13.908Z,67.84
2023-06-06T00:38:42.081Z,67.24
2023-06-06T00:41:11.042Z,67.58
2023-06-06T00:43:40.881Z,68.04
2023-06-06T00:46:09.069Z,68.13
2023-06-06T00:48:37.232Z,68.32
2023-06-06T00:51:06.274Z,67.57
2023-06-06T00:53:34.474Z,68.63
2023-06-06T00:56:02.552Z,68.68
2023-06-06T00:58:31.945Z,67.69
2023-06-06T01:01:02.968Z,68.12
2023-06-06T01:03:31.283Z,67.48
2023-06-06T01:05:59.561Z,67.84
2023-06-06T01:08:27.670Z,67.48
2023-06-06T01:11:07.407Z,67.73
2023-06-06T01:13:40.960Z,67.72
2023-06-06T01:16:16.345Z,67.33
2023-06-06T01:18:46.916Z,67.46
2023-06-06T01:21:15.981Z,66.89
2023-06-06T01:23:47.283Z,66.70
2023-06-06T01:26:15.991Z,66.69
2023-06-06T01:28:44.017Z,66.30
2023-06-06T01:31:20.125Z,66.47
2023-06-06T01:33:56.256Z,66.09
2023-06-06T01:36:30.971Z,65.73
2023-06-06T01:39:08.378Z,65.35
2023-06-06T01:41:41.096Z,65.03
2023-06-06T01:44:13.190Z,64.75
2023-06-06T01:46:42.864Z,64.47
2023-06-06T01:49:13.808Z,64.21
2023-06-06T01:51:41.993Z,63.75
2023-06-06T01:54:13.466Z,63.16
2023-06-06T01:56:42.057Z,63.42
2023-06-06T01:59:11.180Z,62.54
2023-06-06T02:01:39.316Z,62.45
2023-06-06T02:04:07.406Z,61.90
2023-06-06T02:06:37.094Z,61.08
2023-06-06T02:09:05.219Z,60.34
2023-06-06T02:11:38.740Z,59.64
2023-06-06T02:14:09.708Z,59.28
2023-06-06T02:16:38.666Z,59.02
2023-06-06T02:19:06.750Z,58.28
2023-06-06T02:21:34.813Z,57.21
2023-06-06T02:24:03.232Z,55.75
2023-06-06T02:26:36.738Z,54.35
2023-06-06T02:29:07.372Z,52.39
2023-06-06T02:31:38.891Z,50.40
2023-06-06T02:34:08.807Z,48.07
2023-06-06T02:36:39.324Z,45.71
2023-06-06T02:39:08.140Z,43.98
2023-06-06T02:41:36.539Z,43.17
2023-06-06T02:44:06.708Z,41.91
2023-06-06T02:46:35.032Z,40.69
2023-06-06T02:49:03.162Z,39.25
2023-06-06T02:51:31.535Z,38.99
2023-06-06T02:53:59.624Z,37.69
2023-06-06T02:56:27.811Z,37.17
2023-06-06T02:58:55.950Z,36.47
2023-06-06T03:01:26.533Z,35.94
2023-06-06T03:03:54.785Z,35.58
2023-06-06T03:06:22.940Z,34.83
2023-06-06T03:08:56.340Z,33.79
2023-06-06T03:11:26.341Z,33.04
2023-06-06T03:13:54.588Z,33.72
2023-06-06T03:16:27.228Z,33.97
2023-06-06T03:18:57.242Z,34.71
2023-06-06T03:21:25.521Z,35.06
2023-06-06T03:23:55.764Z,34.91
2023-06-06T03:26:28.163Z,34.69
2023-06-06T03:29:00.231Z,34.88
2023-06-06T03:31:34.820Z,33.72
2023-06-06T03:34:05.060Z,32.04
2023-06-06T03:36:36.778Z,32.32
2023-06-06T03:39:08.021Z,32.21
2023-06-06T03:41:36.985Z,30.43
2023-06-06T03:44:06.628Z,29.02
2023-06-06T03:46:35.919Z,27.43
2023-06-06T03:49:05.378Z,26.16
2023-06-06T03:51:33.431Z,25.91
2023-06-06T03:54:01.703Z,26.23
2023-06-06T03:56:30.954Z,24.97
2023-06-06T03:58:59.284Z,24.59
2023-06-06T04:01:32.292Z,24.39
2023-06-06T04:04:00.990Z,24.19
2023-06-06T04:06:30.509Z,23.94
2023-06-06T04:08:59.713Z,24.71
2023-06-06T04:11:28.239Z,25.25
2023-06-06T04:13:56.513Z,26.40
2023-06-06T04:16:24.564Z,25.73
2023-06-06T04:18:54.179Z,24.82
2023-06-06T04:21:23.234Z,24.78
2023-06-06T04:23:55.283Z,24.68
2023-06-06T04:26:25.973Z,25.06
2023-06-06T04:29:00.106Z,23.96
2023-06-06T04:31:30.565Z,23.03
2023-06-06T04:34:02.652Z,23.99
2023-06-06T04:36:34.343Z,24.48
2023-06-06T04:39:08.295Z,25.29
2023-06-06T04:44:08.458Z,27.16
2023-06-06T04:46:37.658Z,27.55
2023-06-06T04:49:06.138Z,27.43
2023-06-06T04:51:38.194Z,27.47
2023-06-06T04:54:08.816Z,27.57
2023-06-06T04:56:36.954Z,27.00
2023-06-06T04:59:07.859Z,26.04
2023-06-06T05:01:38.034Z,25.59
2023-06-06T05:04:08.406Z,25.04
2023-06-06T05:06:36.603Z,24.32
2023-06-06T05:09:06.007Z,23.01
2023-06-06T05:11:35.569Z,21.94
2023-06-06T05:14:03.997Z,21.03
2023-06-06T05:16:32.511Z,20.30
2023-06-06T05:19:00.792Z,20.01
2023-06-06T05:21:29.107Z,18.48
2023-06-06T05:23:59.979Z,17.77
2023-06-06T05:26:28.925Z,17.42
2023-06-06T05:28:58.366Z,16.64
2023-06-06T05:31:26.940Z,16.21
2023-06-06T05:33:55.631Z,15.73
2023-06-06T05:36:24.025Z,15.45
2023-06-06T05:38:52.209Z,15.29
2023-06-06T05:41:21.582Z,15.20
2023-06-06T05:43:49.996Z,14.29
2023-06-06T05:46:20.602Z,14.40
2023-06-06T05:48:48.678Z,13.92
2023-06-06T05:51:17.867Z,14.86
2023-06-06T05:53:46.347Z,14.69
2023-06-06T05:56:14.897Z,14.92
2023-06-06T05:58:43.053Z,14.94
2023-06-06T06:01:14.042Z,15.66
2023-06-06T06:03:44.455Z,14.91
2023-06-06T06:06:12.780Z,14.26
2023-06-06T06:08:40.880Z,14.61
2023-06-06T06:11:09.809Z,14.51
2023-06-06T06:13:39.170Z,14.02
2023-06-06T06:16:07.857Z,14.78
2023-06-06T06:18:35.986Z,14.16
2023-06-06T06:21:05.687Z,13.26
2023-06-06T06:23:33.829Z,13.18
2023-06-06T06:26:02.936Z,13.21
2023-06-06T06:28:32.139Z,12.77
2023-06-06T06:31:00.284Z,12.62
2023-06-06T06:33:30.670Z,12.48
2023-06-06T06:35:58.744Z,12.52
2023-06-06T06:38:28.576Z,12.19
2023-06-06T06:40:56.779Z,12.24
2023-06-06T06:43:25.152Z,12.41
2023-06-06T06:46:10.958Z,12.61
2023-06-06T06:48:40.390Z,12.11
2023-06-06T06:51:09.309Z,11.83
2023-06-06T06:53:40.098Z,11.77
2023-06-06T06:56:09.065Z,11.79
2023-06-06T06:58:39.035Z,11.96
2023-06-06T07:01:07.309Z,12.19
2023-06-06T07:03:36.381Z,11.96
2023-06-06T07:06:08.813Z,11.77
2023-06-06T07:08:37.013Z,11.49
2023-06-06T07:11:06.447Z,11.57
2023-06-06T07:13:34.537Z,11.58
2023-06-06T07:16:02.659Z,11.42
2023-06-06T07:18:30.989Z,11.61
2023-06-06T07:20:59.153Z,12.15
2023-06-06T07:23:27.357Z,11.75
2023-06-06T07:25:56.110Z,12.09
2023-06-06T07:28:27.275Z,12.31
2023-06-06T07:30:55.586Z,12.58
2023-06-06T07:33:23.732Z,12.30
2023-06-06T07:35:51.887Z,12.45
2023-06-06T07:38:20.135Z,12.63
2023-06-06T07:40:49.091Z,12.89
2023-06-06T07:43:17.177Z,12.75
2023-06-06T07:45:46.641Z,12.83
2023-06-06T07:48:14.785Z,13.16
2023-06-06T07:50:42.913Z,14.18
2023-06-06T07:53:11.992Z,14.04
2023-06-06T07:55:40.150Z,13.92
2023-06-06T07:58:11.476Z,14.03
2023-06-06T08:00:41.109Z,13.70
2023-06-06T08:03:13.001Z,13.67
2023-06-06T08:05:41.290Z,13.88
2023-06-06T08:08:09.845Z,14.04
2023-06-06T08:10:37.927Z,13.37
2023-06-06T08:13:06.283Z,13.38
2023-06-06T08:15:34.314Z,13.35
2023-06-06T08:18:02.885Z,13.15
2023-06-06T08:20:32.354Z,13.48
2023-06-06T08:23:00.830Z,14.23
2023-06-06T08:25:30.121Z,13.96
2023-06-06T08:27:59.557Z,14.00
2023-06-06T08:30:27.633Z,14.60
2023-06-06T08:32:55.668Z,14.26
2023-06-06T08:35:25.478Z,14.19
2023-06-06T08:37:55.233Z,14.92
2023-06-06T08:40:23.456Z,15.94
2023-06-06T08:42:53.497Z,16.39
2023-06-06T08:45:23.257Z,17.09
2023-06-06T08:47:52.323Z,18.18
2023-06-06T08:50:23.142Z,18.82
2023-06-06T08:52:52.621Z,19.38
2023-06-06T08:55:23.239Z,20.52
2023-06-06T08:57:52.873Z,21.00
2023-06-06T09:00:24.036Z,21.95
2023-06-06T09:02:55.126Z,22.14
2023-06-06T09:05:23.966Z,22.69
2023-06-06T09:07:54.226Z,23.12
2023-06-06T09:10:24.844Z,23.73
2023-06-06T09:12:53.021Z,23.79
2023-06-06T09:15:21.089Z,24.74
2023-06-06T09:17:54.956Z,25.12
2023-06-06T09:20:24.707Z,25.49
2023-06-06T09:22:52.781Z,25.83
2023-06-06T09:25:22.336Z,26.32
2023-06-06T09:28:02.349Z,26.14
2023-06-06T09:30:32.302Z,25.82
2023-06-06T09:33:03.863Z,25.50
2023-06-06T09:35:33.594Z,25.27
2023-06-06T09:38:08.141Z,25.37
2023-06-06T09:40:45.852Z,25.56
2023-06-06T09:43:17.373Z,25.69
2023-06-06T09:45:52.693Z,25.05
2023-06-06T09:48:25.371Z,24.98
2023-06-06T09:50:53.815Z,24.61
2023-06-06T09:53:25.528Z,25.37
2023-06-06T09:55:55.453Z,25.88
2023-06-06T09:58:27.701Z,26.50
2023-06-06T10:00:58.925Z,26.83
2023-06-06T10:03:28.065Z,26.82
2023-06-06T10:05:56.836Z,27.44
2023-06-06T10:08:25.626Z,27.78
2023-06-06T10:28:34.965Z,31.60
2023-06-06T10:31:06.298Z,31.61
2023-06-06T10:33:44.090Z,31.42
2023-06-06T10:36:16.913Z,31.56
2023-06-06T10:39:22.551Z,32.08
2023-06-06T10:41:57.310Z,31.96
2023-06-06T10:44:28.828Z,32.85
2023-06-06T10:47:42.957Z,34.36
2023-06-06T10:50:24.990Z,33.57
2023-06-06T10:56:42.614Z,34.71
2023-06-06T10:59:23.137Z,35.19
2023-06-06T11:02:21.423Z,35.68
2023-06-06T11:05:09.027Z,36.27
2023-06-06T11:07:42.907Z,36.49
2023-06-06T11:10:14.700Z,36.16
2023-06-06T11:12:58.241Z,36.01
2023-06-06T11:15:57.221Z,35.92
2023-06-06T11:18:57.226Z,36.26
2023-06-06T11:21:43.672Z,35.75
2023-06-06T11:24:55.703Z,36.30
2023-06-06T11:27:31.216Z,35.45
2023-06-06T11:30:10.090Z,35.61
2023-06-06T11:33:41.062Z,34.32
2023-06-06T11:36:28.203Z,33.87
2023-06-06T11:39:29.069Z,33.79
2023-06-06T11:42:29.943Z,34.13
2023-06-06T11:45:46.158Z,34.04
2023-06-06T11:49:09.460Z,33.72
2023-06-06T11:51:58.990Z,33.48
2023-06-06T11:54:46.958Z,33.27
2023-06-06T12:00:41.884Z,33.09
2023-06-06T12:03:30.826Z,32.36
2023-06-06T12:16:19.776Z,33.50
2023-06-06T12:19:32.553Z,33.94
2023-06-06T12:22:02.697Z,34.17
2023-06-06T12:24:33.358Z,33.46
2023-06-06T12:27:03.530Z,33.24
2023-06-06T12:29:34.957Z,32.82
2023-06-06T12:32:17.095Z,32.11
2023-06-06T12:34:49.600Z,32.82
2023-06-06T12:37:21.126Z,32.79
2023-06-06T12:39:50.119Z,33.13
2023-06-06T12:42:20.843Z,33.31
2023-06-06T12:44:49.365Z,33.61
2023-06-06T12:47:18.639Z,34.02
2023-06-06T12:49:48.804Z,33.80
2023-06-06T12:52:16.914Z,33.66
2023-06-06T12:54:46.390Z,33.74
2023-06-06T12:57:18.299Z,33.45
2023-06-06T12:59:48.257Z,33.56
2023-06-06T13:02:16.774Z,33.20
2023-06-06T13:04:45.200Z,33.11
2023-06-06T13:07:14.498Z,32.99
2023-06-06T13:09:42.616Z,32.82
2023-06-06T13:12:12.749Z,32.80
2023-06-06T13:14:40.909Z,32.59
2023-06-06T13:19:40.131Z,32.89
2023-06-06T13:22:08.276Z,33.20
2023-06-06T13:24:36.391Z,33.19
2023-06-06T13:27:04.904Z,33.20
2023-06-06T13:29:35.605Z,33.22
2023-06-06T13:32:05.231Z,33.32
2023-06-06T13:34:33.343Z,33.22
2023-06-06T13:37:02.783Z,33.10
2023-06-06T13:39:33.578Z,32.91
2023-06-06T13:42:01.602Z,32.87
2023-06-06T13:44:29.622Z,33.01
2023-06-06T13:47:01.465Z,33.08
2023-06-06T13:49:30.319Z,32.65
2023-06-06T13:52:00.355Z,32.91
2023-06-06T13:54:28.831Z,33.06
2023-06-06T13:57:01.119Z,33.41
2023-06-06T13:59:29.903Z,32.95
2023-06-06T14:01:59.612Z,33.01
2023-06-06T14:04:28.642Z,32.85
2023-06-06T14:06:57.431Z,32.79
2023-06-06T14:09:25.649Z,32.91
2023-06-06T14:11:53.788Z,32.82
2023-06-06T14:14:22.146Z,32.87
2023-06-06T14:16:50.358Z,32.98
2023-06-06T14:19:36.355Z,32.90
2023-06-06T14:22:25.507Z,32.59
2023-06-06T14:24:57.107Z,32.46
2023-06-06T14:27:26.192Z,32.35
2023-06-06T14:29:57.131Z,32.43
2023-06-06T14:32:30.229Z,32.69
2023-06-06T14:35:01.518Z,33.00
2023-06-06T14:37:31.894Z,32.38
2023-06-06T14:40:00.907Z,31.93
2023-06-06T14:42:29.747Z,31.73
2023-06-06T14:44:58.205Z,31.72
2023-06-06T14:47:27.372Z,31.84
2023-06-06T14:49:55.437Z,31.84
2023-06-06T14:52:24.866Z,31.74
2023-06-06T14:54:53.783Z,31.77
2023-06-06T14:57:22.508Z,31.66
2023-06-06T14:59:50.627Z,31.85
2023-06-06T15:02:19.218Z,31.91
2023-06-06T15:04:48.759Z,32.07
2023-06-06T15:07:17.183Z,32.04
2023-06-06T15:09:46.590Z,32.03
2023-06-06T15:12:14.801Z,32.02
2023-06-06T15:14:43.368Z,31.84
2023-06-06T15:17:12.109Z,31.54
2023-06-06T15:19:42.655Z,31.45
2023-06-06T15:22:11.110Z,31.42
2023-06-06T15:24:39.569Z,31.46
2023-06-06T15:27:09.652Z,31.32
2023-06-06T15:29:42.876Z,31.07
2023-06-06T15:32:11.936Z,30.77
2023-06-06T15:34:40.299Z,30.47
2023-06-06T15:37:09.334Z,30.33
2023-06-06T15:39:37.644Z,30.67
2023-06-06T15:42:07.118Z,31.06
2023-06-06T15:44:39.145Z,31.37
2023-06-06T15:47:07.915Z,31.70
2023-06-06T15:49:36.049Z,32.04
2023-06-06T15:52:04.145Z,32.35
2023-06-06T15:54:33.139Z,32.84
2023-06-06T15:57:01.364Z,33.09
2023-06-06T15:59:29.673Z,33.37
2023-06-06T16:01:59.238Z,33.19
2023-06-06T16:04:28.374Z,32.88
2023-06-06T16:06:56.431Z,32.60
2023-06-06T16:09:24.586Z,32.22
2023-06-06T16:11:53.153Z,32.10
2023-06-06T16:14:21.173Z,32.09
2023-06-06T16:16:49.409Z,32.04
2023-06-06T16:19:18.867Z,31.81
2023-06-06T16:21:47.018Z,32.02
2023-06-06T16:24:15.251Z,31.91
2023-06-06T16:26:43.363Z,31.79
2023-06-06T16:29:11.453Z,31.65
2023-06-06T16:31:39.537Z,31.48
2023-06-06T16:34:07.768Z,31.26
2023-06-06T16:36:37.567Z,31.20
2023-06-06T16:39:08.630Z,31.15
2023-06-06T16:41:37.147Z,31.08
2023-06-06T16:44:05.596Z,31.26
2023-06-06T16:46:34.447Z,31.08
2023-06-06T16:49:02.549Z,31.01
2023-06-06T16:51:30.826Z,31.08
2023-06-06T16:54:00.271Z,30.94
2023-06-06T16:56:28.490Z,31.22
2023-06-06T16:58:56.555Z,31.39
2023-06-06T17:01:24.730Z,31.52
2023-06-06T17:03:53.195Z,31.65
2023-06-06T17:06:21.948Z,31.73
2023-06-06T17:08:50.006Z,31.93
2023-06-06T17:11:20.595Z,31.95
2023-06-06T17:13:51.563Z,32.51
2023-06-06T17:16:19.799Z,32.71
2023-06-06T17:18:47.963Z,32.62
2023-06-06T17:21:16.444Z,32.60
2023-06-06T17:23:44.692Z,33.04
2023-06-06T17:26:12.805Z,33.34
2023-06-06T17:28:42.493Z,33.87
2023-06-06T17:31:11.442Z,34.27
2023-06-06T17:33:40.599Z,34.44
2023-06-06T17:36:09.142Z,34.93
2023-06-06T17:38:37.301Z,34.90
2023-06-06T17:41:06.673Z,35.07
2023-06-06T17:43:34.861Z,35.04
2023-06-06T17:46:05.311Z,35.33
2023-06-06T17:48:36.282Z,35.82
2023-06-06T17:51:04.460Z,36.06
2023-06-06T17:53:33.027Z,36.22
2023-06-06T17:56:01.694Z,36.56
2023-06-06T17:58:30.102Z,37.00
2023-06-06T18:00:59.349Z,37.31
2023-06-06T18:03:29.838Z,38.08
2023-06-06T18:05:57.944Z,38.76
2023-06-06T18:08:26.171Z,39.22
2023-06-06T18:10:54.845Z,39.60
2023-06-06T18:13:23.029Z,40.36
2023-06-06T18:15:51.169Z,40.74
2023-06-06T18:18:19.656Z,41.38
2023-06-06T18:20:49.063Z,42.03
2023-06-06T18:23:19.727Z,42.56
2023-06-06T18:25:50.544Z,42.57
2023-06-06T18:28:19.547Z,42.44
2023-06-06T18:30:47.736Z,41.97
2023-06-06T18:33:15.977Z,41.93
2023-06-06T18:35:44.107Z,41.78
2023-06-06T18:38:13.746Z,41.74
2023-06-06T18:40:41.854Z,41.61
2023-06-06T18:43:09.941Z,41.51
2023-06-06T18:45:38.830Z,41.67
2023-06-06T18:48:07.383Z,41.23
2023-06-06T18:50:35.605Z,41.54
2023-06-06T18:53:03.842Z,41.31
2023-06-06T18:55:34.290Z,40.68
2023-06-06T18:58:02.876Z,39.97
2023-06-06T19:00:30.970Z,40.22
2023-06-06T19:02:59.083Z,40.28
2023-06-06T19:05:27.262Z,39.85
2023-06-06T19:07:55.743Z,39.41
2023-06-06T19:10:23.904Z,39.35
2023-06-06T19:12:53.740Z,39.51
2023-06-06T19:15:22.613Z,39.05
2023-06-06T19:17:50.776Z,39.57
2023-06-06T19:20:19.168Z,39.29
2023-06-06T19:22:47.462Z,39.26
2023-06-06T19:25:15.946Z,39.18
2023-06-06T19:27:44.776Z,39.52
2023-06-06T19:30:16.859Z,39.62
2023-06-06T19:32:45.387Z,40.29
2023-06-06T19:35:13.850Z,40.36
2023-06-06T19:37:42.794Z,41.02
2023-06-06T19:40:21.770Z,41.42
2023-06-06T19:42:50.094Z,42.37
2023-06-06T19:45:21.295Z,42.39
2023-06-06T19:47:49.915Z,42.31
2023-06-06T19:50:18.260Z,42.53
2023-06-06T19:52:46.308Z,42.98
2023-06-06T19:55:15.615Z,43.70
2023-06-06T19:57:44.086Z,44.17
2023-06-06T20:00:14.328Z,44.86
2023-06-06T20:02:44.151Z,44.62
2023-06-06T20:05:13.134Z,44.86
2023-06-06T20:07:42.588Z,45.48
2023-06-06T20:10:12.778Z,45.02
2023-06-06T20:12:41.936Z,45.40
2023-06-06T20:15:11.249Z,45.23
2023-06-06T20:17:40.283Z,45.03
2023-06-06T20:20:11.922Z,44.91
2023-06-06T20:22:40.360Z,44.60
2023-06-06T20:25:10.332Z,44.11
2023-06-06T20:27:39.435Z,44.62
2023-06-06T20:30:08.760Z,44.60
2023-06-06T20:32:37.159Z,45.59
2023-06-06T20:35:07.575Z,44.91
2023-06-06T20:37:37.805Z,45.30
2023-06-06T20:40:22.279Z,45.58
2023-06-06T20:42:51.033Z,45.58
2023-06-06T20:45:37.814Z,46.31
2023-06-06T20:48:11.729Z,46.09
2023-06-06T20:50:46.610Z,46.17
2023-06-06T20:53:16.597Z,45.50
2023-06-06T20:55:44.917Z,45.91
2023-06-06T20:58:18.352Z,45.40
2023-06-06T21:00:46.564Z,45.94
2023-06-06T21:03:16.869Z,45.33
2023-06-06T21:05:45.081Z,44.93
2023-06-06T21:08:13.180Z,45.12
2023-06-06T21:10:42.646Z,44.48
2023-06-06T21:13:11.163Z,44.57
2023-06-06T21:15:39.325Z,45.11
2023-06-06T21:18:07.508Z,44.86
2023-06-06T21:20:35.712Z,44.91
2023-06-06T21:23:03.774Z,44.70
2023-06-06T21:25:31.916Z,45.21
2023-06-06T21:28:01.784Z,45.08
2023-06-06T21:30:29.803Z,45.24
2023-06-06T21:32:58.270Z,45.57
2023-06-06T21:35:26.850Z,45.95
2023-06-06T21:37:54.922Z,45.63
2023-06-06T21:40:23.172Z,45.88
2023-06-06T21:42:51.218Z,46.41
2023-06-06T21:45:20.694Z,46.21
2023-06-06T21:47:49.068Z,46.39
2023-06-06T21:50:17.470Z,46.95
2023-06-06T21:52:45.771Z,47.42
2023-06-06T21:55:14.232Z,47.46
2023-06-06T21:57:42.242Z,47.40
2023-06-06T22:00:14.506Z,47.73
2023-06-06T22:02:46.870Z,48.16
2023-06-06T22:05:15.638Z,48.45
2023-06-06T22:07:44.132Z,49.04
2023-06-06T22:10:12.985Z,49.54
2023-06-06T22:12:41.733Z,51.12
2023-06-06T22:15:11.420Z,50.90
2023-06-06T22:17:39.525Z,50.43
2023-06-06T22:20:10.101Z,50.41
2023-06-06T22:22:38.195Z,50.13
2023-06-06T22:25:07.469Z,50.56
2023-06-06T22:27:36.790Z,52.16
2023-06-06T22:30:05.617Z,53.36
2023-06-06T22:32:34.016Z,54.62
2023-06-06T22:35:04.057Z,54.46
2023-06-06T22:37:33.870Z,55.77
2023-06-06T22:40:02.275Z,55.86
2023-06-06T22:42:31.727Z,55.54
2023-06-06T22:44:59.791Z,56.66
2023-06-06T22:47:27.787Z,57.13
2023-06-06T22:49:56.549Z,57.55
2023-06-06T22:52:27.173Z,57.74
2023-06-06T22:54:56.695Z,58.25
2023-06-06T22:57:24.726Z,58.42
2023-06-06T22:59:53.570Z,58.58
2023-06-06T23:02:22.072Z,57.89
2023-06-06T23:04:50.384Z,56.84
2023-06-06T23:07:18.471Z,57.93
2023-06-06T23:09:47.154Z,58.00
2023-06-06T23:12:16.556Z,58.51
2023-06-06T23:14:44.552Z,59.15
2023-06-06T23:17:13.591Z,58.87
2023-06-06T23:19:41.836Z,59.27
2023-06-06T23:22:10.055Z,59.59
2023-06-06T23:24:38.978Z,58.64
2023-06-06T23:27:07.655Z,58.57
2023-06-06T23:29:37.059Z,59.63
2023-06-06T23:32:05.886Z,60.02
2023-06-06T23:34:33.940Z,59.48
2023-06-06T23:37:02.040Z,58.85
2023-06-06T23:39:30.256Z,58.85
2023-06-06T23:41:58.245Z,58.70
2023-06-06T23:44:26.257Z,58.66
2023-06-06T23:46:55.745Z,59.64
2023-06-06T23:49:23.912Z,59.43
2023-06-06T23:51:51.880Z,60.27
2023-06-06T23:54:20.070Z,59.74
2023-06-06T23:56:48.189Z,59.70
2023-06-06T23:59:16.264Z,60.46
